createdAt,value
2016-12-06T00:00:45.528Z,26.18
2016-12-06T00:01:45.532Z,26.17
2016-12-06T00:02:45.544Z,26.13
2016-12-06T00:03:45.235Z,26.15
2016-12-06T00:04:45.542Z,26.12
2016-12-06T00:05:44.986Z,26.12
2016-12-06T00:06:44.945Z,26.2
2016-12-06T00:07:46.114Z,26.17
2016-12-06T00:08:45.266Z,26.2
2016-12-06T00:09:45.298Z,26.23
2016-12-06T00:10:45.330Z,26.23
2016-12-06T00:11:45.341Z,26.21
2016-12-06T00:12:45.318Z,26.13
2016-12-06T00:13:45.614Z,26.1
2016-12-06T00:14:45.636Z,26.17
2016-12-06T00:15:46.015Z,26.15
2016-12-06T00:16:45.684Z,26.13
2016-12-06T00:17:45.334Z,26.17
2016-12-06T00:18:45.703Z,26.13
2016-12-06T00:19:45.660Z,26.09
2016-12-06T00:20:45.093Z,26.1
2016-12-06T00:21:45.044Z,26.2
2016-12-06T00:22:45.370Z,26.12
2016-12-06T00:23:45.369Z,26.07
2016-12-06T00:24:45.115Z,26.12
2016-12-06T00:25:45.389Z,26.12
2016-12-06T00:26:45.937Z,26.17
2016-12-06T00:27:45.082Z,26.17
2016-12-06T00:28:45.289Z,26.18
2016-12-06T00:29:45.727Z,26.2
2016-12-06T00:30:45.419Z,26.18
2016-12-06T00:31:45.476Z,26.13
2016-12-06T00:32:45.435Z,26.13
2016-12-06T00:33:45.802Z,26.21
2016-12-06T00:34:45.760Z,26.21
2016-12-06T00:35:45.765Z,26.12
2016-12-06T00:36:45.772Z,26.17
2016-12-06T00:37:46.626Z,26.12
2016-12-06T00:38:45.523Z,26.18
2016-12-06T00:39:45.983Z,26.1
2016-12-06T00:40:45.536Z,26.1
2016-12-06T00:41:45.858Z,26.18
2016-12-06T00:42:45.193Z,26.09
2016-12-06T00:43:45.607Z,26.17
2016-12-06T00:44:45.230Z,26.12
2016-12-06T00:45:45.519Z,26.15
2016-12-06T00:46:45.213Z,26.17
2016-12-06T00:47:45.846Z,26.07
2016-12-06T00:48:45.238Z,26.12
2016-12-06T00:49:45.549Z,26.17
2016-12-06T00:50:46.668Z,26.1
2016-12-06T00:51:45.875Z,26.1
2016-12-06T00:52:46.118Z,26.17
2016-12-06T00:53:45.573Z,26.2
2016-12-06T00:54:45.584Z,26.09
2016-12-06T00:55:45.955Z,26.18
2016-12-06T00:56:45.649Z,26.13
2016-12-06T00:57:45.604Z,26.1
2016-12-06T00:58:45.927Z,26.12
2016-12-06T00:59:45.930Z,26.15
2016-12-06T01:00:45.936Z,26.13
2016-12-06T01:01:47.031Z,26.12
2016-12-06T01:02:45.686Z,26.17
2016-12-06T01:03:46.331Z,26.12
2016-12-06T01:04:45.994Z,26.17
2016-12-06T01:05:45.970Z,26.12
2016-12-06T01:06:45.665Z,26.12
2016-12-06T01:07:45.359Z,26.12
2016-12-06T01:08:45.990Z,26.09
2016-12-06T01:09:45.372Z,26.17
2016-12-06T01:10:45.435Z,26.07
2016-12-06T01:11:45.753Z,26.12
2016-12-06T01:12:47.068Z,26.2
2016-12-06T01:13:45.712Z,26.15
2016-12-06T01:14:46.412Z,26.18
2016-12-06T01:15:45.462Z,26.18
2016-12-06T01:16:45.732Z,26.15
2016-12-06T01:17:45.424Z,26.13
2016-12-06T01:18:45.433Z,26.18
2016-12-06T01:19:45.755Z,26.17
2016-12-06T01:20:45.496Z,26.06
2016-12-06T01:21:45.820Z,26.13
2016-12-06T01:22:45.782Z,26.1
2016-12-06T01:23:47.250Z,26.1
2016-12-06T01:24:46.102Z,26.1
2016-12-06T01:25:46.656Z,26.13
2016-12-06T01:26:45.853Z,26.09
2016-12-06T01:28:01.186Z,26.13
2016-12-06T01:28:46.124Z,26.02
2016-12-06T01:29:45.819Z,26.12
2016-12-06T01:30:45.595Z,26.17
2016-12-06T01:31:46.149Z,26.06
2016-12-06T01:32:45.528Z,26.12
2016-12-06T01:33:45.851Z,26.15
2016-12-06T01:34:46.967Z,26.17
2016-12-06T01:35:45.599Z,26.1
2016-12-06T01:36:46.782Z,26.13
2016-12-06T01:37:45.661Z,26.17
2016-12-06T01:38:46.197Z,26.13
2016-12-06T01:39:45.578Z,26.13
2016-12-06T01:40:45.894Z,26.13
2016-12-06T01:41:46.318Z,26.07
2016-12-06T01:42:46.273Z,26.13
2016-12-06T01:43:46.229Z,26.18
2016-12-06T01:44:46.234Z,26.09
2016-12-06T01:45:45.926Z,26.13
2016-12-06T01:46:46.294Z,26.07
2016-12-06T01:47:47.209Z,26.21
2016-12-06T01:48:45.947Z,26.18
2016-12-06T01:49:45.652Z,26.07
2016-12-06T01:50:45.961Z,26.23
2016-12-06T01:51:45.756Z,26.21
2016-12-06T01:52:45.984Z,26.09
2016-12-06T01:53:46.323Z,26.02
2016-12-06T01:54:46.030Z,26.13
2016-12-06T01:55:46.317Z,26.13
2016-12-06T01:56:46.056Z,26.12
2016-12-06T01:57:46.060Z,26.06
2016-12-06T01:58:45.712Z,26.12
2016-12-06T01:59:46.027Z,26.1
2016-12-06T02:00:46.085Z,26.17
2016-12-06T02:01:45.727Z,26.23
2016-12-06T02:02:46.114Z,26.12
2016-12-06T02:03:46.102Z,26.12
2016-12-06T02:04:46.063Z,26.2
2016-12-06T02:05:46.405Z,26.1
2016-12-06T02:06:46.075Z,26.13
2016-12-06T02:07:45.771Z,26.17
2016-12-06T02:08:46.440Z,26.25
2016-12-06T02:09:46.173Z,26.13
2016-12-06T02:10:45.791Z,26.15
2016-12-06T02:11:46.422Z,26.13
2016-12-06T02:12:46.471Z,26.09
2016-12-06T02:13:45.896Z,26.13
2016-12-06T02:14:46.128Z,26.17
2016-12-06T02:15:46.190Z,26.1
2016-12-06T02:16:46.898Z,26.17
2016-12-06T02:17:46.489Z,26.13
2016-12-06T02:18:46.589Z,26.21
2016-12-06T02:19:46.183Z,26.17
2016-12-06T02:20:46.482Z,26.2
2016-12-06T02:21:46.227Z,26.2
2016-12-06T02:22:46.500Z,26.18
2016-12-06T02:23:46.558Z,26.2
2016-12-06T02:24:46.558Z,26.21
2016-12-06T02:25:46.203Z,26.09
2016-12-06T02:26:46.216Z,26.02
2016-12-06T02:28:01.099Z,26.1
2016-12-06T02:28:46.539Z,26.2
2016-12-06T02:29:46.696Z,26.12
2016-12-06T02:30:46.239Z,26.1
2016-12-06T02:31:46.295Z,26.18
2016-12-06T02:32:46.567Z,26.13
2016-12-06T02:33:46.674Z,26.21
2016-12-06T02:34:45.998Z,26.13
2016-12-06T02:35:46.014Z,26.12
2016-12-06T02:36:45.966Z,26.17
2016-12-06T02:37:46.599Z,26.1
2016-12-06T02:38:47.750Z,26.12
2016-12-06T02:39:46.305Z,26.25
2016-12-06T02:40:46.646Z,26.12
2016-12-06T02:41:46.314Z,26.15
2016-12-06T02:42:46.321Z,26.23
2016-12-06T02:43:46.326Z,26.2
2016-12-06T02:44:46.071Z,26.12
2016-12-06T02:45:46.453Z,26.29
2016-12-06T02:46:46.708Z,26.13
2016-12-06T02:47:46.353Z,26.15
2016-12-06T02:48:46.362Z,26.17
2016-12-06T02:49:48.210Z,26.15
2016-12-06T02:50:46.691Z,26.13
2016-12-06T02:52:01.359Z,26.17
2016-12-06T02:52:46.495Z,26.15
2016-12-06T02:53:46.113Z,26.12
2016-12-06T02:54:46.401Z,26.17
2016-12-06T02:55:46.406Z,26.15
2016-12-06T02:56:46.729Z,26.25
2016-12-06T02:57:46.425Z,26.18
2016-12-06T02:58:46.795Z,26.17
2016-12-06T02:59:46.487Z,26.13
2016-12-06T03:00:46.129Z,26.13
2016-12-06T03:01:46.809Z,26.12
2016-12-06T03:02:47.887Z,26.09
2016-12-06T03:03:46.825Z,26.21
2016-12-06T03:04:46.157Z,26.2
2016-12-06T03:05:46.275Z,26.13
2016-12-06T03:06:46.858Z,26.1
2016-12-06T03:07:46.541Z,26.07
2016-12-06T03:08:46.232Z,26.09
2016-12-06T03:25:03.500Z,26.12
2016-12-06T03:26:02.298Z,26.15
2016-12-06T03:27:03.080Z,26.05
2016-12-06T03:28:02.363Z,26.06
2016-12-06T03:29:02.318Z,26.07
2016-12-06T03:30:02.373Z,26.15
2016-12-06T03:31:02.135Z,26.09
2016-12-06T03:32:02.338Z,26.1
2016-12-06T03:33:02.665Z,26.13
2016-12-06T03:34:02.362Z,26.2
2016-12-06T03:35:02.100Z,26.17
2016-12-06T03:36:03.600Z,26.09
2016-12-06T03:37:02.685Z,26.12
2016-12-06T03:38:03.230Z,26.07
2016-12-06T03:39:02.397Z,26.21
2016-12-06T03:40:17.771Z,26.13
2016-12-06T03:41:03.162Z,26.15
2016-12-06T03:42:02.143Z,26.25
2016-12-06T03:43:02.778Z,26.1
2016-12-06T03:44:02.794Z,26.07
2016-12-06T03:45:02.424Z,26.09
2016-12-06T03:46:02.484Z,26.17
2016-12-06T03:47:03.651Z,26.12
2016-12-06T03:48:02.446Z,26.1
2016-12-06T03:49:03.519Z,26.09
2016-12-06T03:50:02.775Z,26.07
2016-12-06T03:51:02.828Z,26.1
2016-12-06T03:52:02.499Z,26.1
2016-12-06T03:53:03.397Z,26.07
2016-12-06T03:54:02.173Z,26.06
2016-12-06T03:55:02.857Z,26.1
2016-12-06T03:56:02.814Z,26.09
2016-12-06T03:57:02.873Z,26.12
2016-12-06T03:58:02.517Z,26.12
2016-12-06T03:59:02.572Z,26.1
2016-12-06T04:00:03.942Z,26.1
2016-12-06T04:01:02.275Z,26.12
2016-12-06T04:02:02.596Z,26.06
2016-12-06T04:03:02.913Z,26.12
2016-12-06T04:04:02.871Z,26.01
2016-12-06T04:05:02.569Z,26.13
2016-12-06T04:06:02.352Z,26.15
2016-12-06T04:07:02.892Z,26.1
2016-12-06T04:08:02.582Z,26.12
2016-12-06T04:09:02.668Z,26.12
2016-12-06T04:10:02.597Z,26.09
2016-12-06T04:11:04.216Z,26.1
2016-12-06T04:12:02.616Z,26.07
2016-12-06T04:13:02.980Z,26.07
2016-12-06T04:14:02.686Z,26.17
2016-12-06T04:15:02.634Z,25.98
2016-12-06T04:16:03.059Z,26.09
2016-12-06T04:17:02.646Z,26.07
2016-12-06T04:18:03.019Z,26.13
2016-12-06T04:19:02.980Z,26.05
2016-12-06T04:20:02.965Z,26.15
2016-12-06T04:21:02.988Z,25.98
2016-12-06T04:22:02.415Z,26.07
2016-12-06T04:23:02.770Z,26.07
2016-12-06T04:24:02.697Z,26.01
2016-12-06T04:25:02.704Z,26.09
2016-12-06T04:26:03.021Z,26.01
2016-12-06T04:27:02.763Z,26.07
2016-12-06T04:28:03.082Z,26.07
2016-12-06T04:29:02.730Z,26.15
2016-12-06T04:30:03.049Z,26.02
2016-12-06T04:31:03.156Z,25.99
2016-12-06T04:32:02.753Z,26.02
2016-12-06T04:33:02.805Z,26.1
2016-12-06T04:34:03.126Z,26.09
2016-12-06T04:35:03.081Z,26.05
2016-12-06T04:36:02.796Z,26.05
2016-12-06T04:37:02.783Z,26.01
2016-12-06T04:38:02.838Z,26.1
2016-12-06T04:39:03.158Z,26.09
2016-12-06T04:40:02.875Z,26.13
2016-12-06T04:41:03.123Z,26.05
2016-12-06T04:42:03.329Z,26.12
2016-12-06T04:43:02.900Z,26.09
2016-12-06T04:44:02.928Z,26.17
2016-12-06T04:45:02.837Z,26.05
2016-12-06T04:46:02.957Z,26.07
2016-12-06T04:47:03.211Z,26.12
2016-12-06T04:48:03.220Z,26.13
2016-12-06T04:49:03.196Z,26.21
2016-12-06T04:50:03.189Z,26.09
2016-12-06T04:51:03.193Z,26.1
2016-12-06T04:52:03.245Z,26.12
2016-12-06T04:53:03.454Z,26.12
2016-12-06T04:54:02.895Z,26.12
2016-12-06T04:55:02.903Z,26.21
2016-12-06T04:56:03.232Z,26.15
2016-12-06T04:57:03.286Z,26.13
2016-12-06T04:58:02.665Z,26.1
2016-12-06T04:59:03.344Z,26.12
2016-12-06T05:00:02.987Z,26.09
2016-12-06T05:01:02.941Z,26.15
2016-12-06T05:02:02.726Z,26.12
2016-12-06T05:03:03.308Z,26.13
2016-12-06T05:04:03.552Z,26.17
2016-12-06T05:05:02.709Z,26.17
2016-12-06T05:06:02.720Z,26.15
2016-12-06T05:07:03.086Z,26.02
2016-12-06T05:08:03.355Z,26.13
2016-12-06T05:09:03.049Z,26.12
2016-12-06T05:10:03.318Z,26.17
2016-12-06T05:11:03.427Z,26.18
2016-12-06T05:12:03.025Z,26.25
2016-12-06T05:13:03.025Z,26.17
2016-12-06T05:14:03.376Z,26.12
2016-12-06T05:15:04.330Z,26.18
2016-12-06T05:16:03.147Z,26.15
2016-12-06T05:17:03.337Z,26.13
2016-12-06T05:18:03.065Z,26.15
2016-12-06T05:19:03.381Z,26.23
2016-12-06T05:20:03.383Z,26.23
2016-12-06T05:21:03.446Z,26.15
2016-12-06T05:22:03.502Z,26.15
2016-12-06T05:23:03.405Z,26.13
2016-12-06T05:24:03.465Z,26.1
2016-12-06T05:25:03.470Z,26.12
2016-12-06T05:26:05.091Z,26.18
2016-12-06T05:27:03.434Z,26.12
2016-12-06T05:28:04.341Z,26.18
2016-12-06T05:29:03.137Z,26.17
2016-12-06T05:30:03.143Z,26.2
2016-12-06T05:31:03.537Z,26.15
2016-12-06T05:32:03.206Z,26.01
2016-12-06T05:33:03.163Z,26.07
2016-12-06T05:34:02.960Z,26.15
2016-12-06T05:35:02.912Z,26.18
2016-12-06T05:36:03.186Z,26.15
2016-12-06T05:37:03.235Z,26.09
2016-12-06T05:38:03.560Z,26.1
2016-12-06T05:39:04.454Z,26.13
2016-12-06T05:40:03.260Z,26.07
2016-12-06T05:41:03.266Z,26.12
2016-12-06T05:42:03.274Z,26.13
2016-12-06T05:43:03.229Z,26.13
2016-12-06T05:44:02.973Z,26.13
2016-12-06T05:45:03.247Z,26.13
2016-12-06T05:46:03.565Z,26.12
2016-12-06T05:47:03.308Z,26.09
2016-12-06T05:48:03.363Z,26.17
2016-12-06T05:49:03.584Z,26.17
2016-12-06T05:50:03.330Z,26.13
2016-12-06T05:51:03.648Z,26.09
2016-12-06T05:52:03.654Z,26.15
2016-12-06T05:53:03.660Z,26.07
2016-12-06T05:54:02.991Z,26.12
2016-12-06T05:55:03.673Z,26.12
2016-12-06T05:56:03.322Z,26.1
2016-12-06T05:57:03.380Z,26.18
2016-12-06T05:58:03.332Z,26.07
2016-12-06T05:59:03.441Z,26.12
2016-12-06T06:00:03.350Z,26.15
2016-12-06T06:01:03.403Z,26.09
2016-12-06T06:02:03.361Z,26.09
2016-12-06T06:03:04.017Z,26.1
2016-12-06T06:04:03.375Z,26.12
2016-12-06T06:05:03.382Z,25.99
2016-12-06T06:06:03.437Z,26.12
2016-12-06T06:07:03.393Z,26.07
2016-12-06T06:08:03.453Z,26.05
2016-12-06T06:09:03.407Z,26.02
2016-12-06T06:10:04.231Z,26.12
2016-12-06T06:11:03.109Z,26.17
2016-12-06T06:12:03.530Z,26.07
2016-12-06T06:13:03.747Z,26.1
2016-12-06T06:14:03.446Z,26.07
2016-12-06T06:15:03.762Z,26.01
2016-12-06T06:16:03.455Z,26.07
2016-12-06T06:17:03.775Z,26.05
2016-12-06T06:18:03.842Z,26.02
2016-12-06T06:19:03.481Z,26.12
2016-12-06T06:20:03.842Z,25.99
2016-12-06T06:21:04.281Z,26.13
2016-12-06T06:22:03.498Z,26.1
2016-12-06T06:23:04.069Z,25.98
2016-12-06T06:24:03.820Z,26.12
2016-12-06T06:25:03.255Z,26.07
2016-12-06T06:26:03.572Z,26.01
2016-12-06T06:27:03.265Z,26.15
2016-12-06T06:28:03.852Z,26.13
2016-12-06T06:29:03.857Z,26.12
2016-12-06T06:30:03.862Z,26.12
2016-12-06T06:31:03.569Z,26.15
2016-12-06T06:32:04.538Z,26.09
2016-12-06T06:33:03.619Z,26.1
2016-12-06T06:34:04.543Z,26.09
2016-12-06T06:35:03.893Z,26.1
2016-12-06T06:36:03.592Z,26.07
2016-12-06T06:37:03.910Z,26.07
2016-12-06T06:38:03.966Z,26.15
2016-12-06T06:39:03.345Z,26.13
2016-12-06T06:40:03.718Z,26.12
2016-12-06T06:41:03.362Z,26.13
2016-12-06T06:42:03.683Z,26.15
2016-12-06T06:43:03.649Z,26.1
2016-12-06T06:44:03.644Z,26.12
2016-12-06T06:45:05.223Z,26.01
2016-12-06T06:46:03.657Z,26.07
2016-12-06T06:47:04.080Z,26.1
2016-12-06T06:48:03.359Z,26.07
2016-12-06T06:49:03.729Z,26.07
2016-12-06T06:50:03.375Z,26.12
2016-12-06T06:51:03.743Z,26.06
2016-12-06T06:52:04.057Z,26.15
2016-12-06T06:53:04.065Z,26.06
2016-12-06T06:54:03.713Z,26.1
2016-12-06T06:55:03.721Z,26.1
2016-12-06T06:56:05.463Z,25.97
2016-12-06T06:57:03.732Z,26.1
2016-12-06T06:58:03.743Z,26.02
2016-12-06T06:59:03.850Z,26.09
2016-12-06T07:00:03.492Z,26.02
2016-12-06T07:01:04.070Z,25.99
2016-12-06T07:02:03.765Z,26.13
2016-12-06T07:03:03.775Z,25.98
2016-12-06T07:04:03.780Z,26.12
2016-12-06T07:05:04.276Z,26.05
2016-12-06T07:06:03.779Z,26.07
2016-12-06T07:07:03.538Z,26.1
2016-12-06T07:08:03.808Z,25.98
2016-12-06T07:09:03.812Z,26.09
2016-12-06T07:10:04.186Z,26.12
2016-12-06T07:11:03.826Z,26.17
2016-12-06T07:12:04.203Z,26.15
2016-12-06T07:13:03.886Z,26.13
2016-12-06T07:14:03.850Z,26.12
2016-12-06T07:15:04.166Z,26.13
2016-12-06T07:16:04.814Z,26.07
2016-12-06T07:17:03.919Z,26.09
2016-12-06T07:18:03.929Z,26.13
2016-12-06T07:19:04.195Z,26.06
2016-12-06T07:20:04.207Z,26.12
2016-12-06T07:21:03.580Z,26.12
2016-12-06T07:22:04.218Z,26.21
2016-12-06T07:23:03.910Z,26.4
2016-12-06T07:24:04.065Z,26.51
2016-12-06T07:25:03.922Z,26.7
2016-12-06T07:26:04.245Z,26.84
2016-12-06T07:27:05.235Z,26.95
2016-12-06T07:28:04.305Z,27.09
2016-12-06T07:29:04.453Z,27.18
2016-12-06T07:30:04.005Z,27.28
2016-12-06T07:31:03.703Z,27.47
2016-12-06T07:32:03.704Z,27.62
2016-12-06T07:33:03.667Z,27.81
2016-12-06T07:34:03.983Z,27.79
2016-12-06T07:35:04.354Z,28.03
2016-12-06T07:36:03.998Z,28
2016-12-06T07:37:03.739Z,28.14
2016-12-06T07:38:05.574Z,28.21
2016-12-06T07:39:04.018Z,28.33
2016-12-06T07:40:04.789Z,28.55
2016-12-06T07:41:04.035Z,28.48
2016-12-06T07:42:04.351Z,28.52
2016-12-06T07:43:04.361Z,28.43
2016-12-06T07:44:04.369Z,28.55
2016-12-06T07:45:03.796Z,28.55
2016-12-06T07:46:04.071Z,28.58
2016-12-06T07:47:04.073Z,28.55
2016-12-06T07:48:04.134Z,28.39
2016-12-06T07:49:06.063Z,28.41
2016-12-06T07:50:04.129Z,28.4
2016-12-06T07:51:04.904Z,28.3
2016-12-06T07:52:04.434Z,28.27
2016-12-06T07:53:04.121Z,28.24
2016-12-06T07:54:03.813Z,28.19
2016-12-06T07:55:04.138Z,28.14
2016-12-06T07:56:04.143Z,28.09
2016-12-06T07:57:04.511Z,28.03
2016-12-06T07:58:04.204Z,27.87
2016-12-06T07:59:03.850Z,27.87
2016-12-06T08:00:04.485Z,27.84
2016-12-06T08:01:04.484Z,27.79
2016-12-06T08:02:05.335Z,27.82
2016-12-06T08:03:04.500Z,27.66
2016-12-06T08:04:04.509Z,27.74
2016-12-06T08:05:04.519Z,27.65
2016-12-06T08:06:03.907Z,27.63
2016-12-06T08:07:04.531Z,27.57
2016-12-06T08:08:04.227Z,27.44
2016-12-06T08:09:04.641Z,27.44
2016-12-06T08:10:03.991Z,27.4
2016-12-06T08:11:04.250Z,27.29
2016-12-06T08:12:03.946Z,27.37
2016-12-06T08:13:05.557Z,27.36
2016-12-06T08:14:04.323Z,27.32
2016-12-06T08:15:04.895Z,27.14
2016-12-06T08:16:04.357Z,27.24
2016-12-06T08:17:04.608Z,27.13
2016-12-06T08:18:04.403Z,27.17
2016-12-06T08:19:04.311Z,27.06
2016-12-06T08:20:04.771Z,27.03
2016-12-06T08:21:04.642Z,27.06
2016-12-06T08:22:04.333Z,26.99
2016-12-06T08:23:04.395Z,26.99
2016-12-06T08:24:04.352Z,26.84
2016-12-06T08:25:04.415Z,26.89
2016-12-06T08:26:04.052Z,26.82
2016-12-06T08:27:04.684Z,26.82
2016-12-06T08:28:04.388Z,26.84
2016-12-06T08:29:04.437Z,26.8
2016-12-06T08:30:04.703Z,26.82
2016-12-06T08:31:05.274Z,26.81
2016-12-06T08:32:04.408Z,26.82
2016-12-06T08:33:04.780Z,26.77
2016-12-06T08:34:04.785Z,26.63
2016-12-06T08:35:04.123Z,26.66
2016-12-06T08:36:04.494Z,26.63
2016-12-06T08:37:04.900Z,26.65
2016-12-06T08:38:04.773Z,26.57
2016-12-06T08:39:04.817Z,26.52
2016-12-06T08:40:04.469Z,26.58
2016-12-06T08:41:04.479Z,26.58
2016-12-06T08:42:05.652Z,26.58
2016-12-06T08:43:04.231Z,26.47
2016-12-06T08:44:04.971Z,26.58
2016-12-06T08:45:04.827Z,26.52
2016-12-06T08:46:04.579Z,26.62
2016-12-06T08:47:04.525Z,26.67
2016-12-06T08:48:04.843Z,26.6
2016-12-06T08:49:04.591Z,26.62
2016-12-06T08:50:04.602Z,26.65
2016-12-06T08:51:04.623Z,26.69
2016-12-06T08:52:04.563Z,26.67
2016-12-06T08:53:05.312Z,26.75
2016-12-06T08:54:04.313Z,26.77
2016-12-06T08:55:04.984Z,26.73
2016-12-06T08:56:04.327Z,26.81
2016-12-06T08:57:04.653Z,26.76
2016-12-06T08:58:04.607Z,26.84
2016-12-06T08:59:05.033Z,26.8
2016-12-06T09:00:04.672Z,26.81
2016-12-06T09:01:04.639Z,26.84
2016-12-06T09:02:04.703Z,26.84
2016-12-06T09:03:04.748Z,26.94
2016-12-06T09:04:04.354Z,26.97
2016-12-06T09:05:04.762Z,27.04
2016-12-06T09:06:05.358Z,27.04
2016-12-06T09:07:04.675Z,26.97
2016-12-06T09:08:05.032Z,26.87
2016-12-06T09:09:04.693Z,26.88
2016-12-06T09:10:05.023Z,26.92
2016-12-06T09:11:04.711Z,26.85
2016-12-06T09:12:04.715Z,26.92
2016-12-06T09:13:04.728Z,26.92
2016-12-06T09:14:04.419Z,26.84
2016-12-06T09:15:04.846Z,26.82
2016-12-06T09:16:04.749Z,26.73
2016-12-06T09:17:04.807Z,26.84
2016-12-06T09:18:05.126Z,26.89
2016-12-06T09:19:06.185Z,26.89
2016-12-06T09:20:05.097Z,26.76
2016-12-06T09:21:04.838Z,26.73
2016-12-06T09:22:04.843Z,26.69
2016-12-06T09:23:04.801Z,26.54
2016-12-06T09:24:04.808Z,26.52
2016-12-06T09:25:05.131Z,26.48
2016-12-06T09:26:05.437Z,26.4
2016-12-06T09:27:04.838Z,26.55
2016-12-06T09:28:04.900Z,26.52
2016-12-06T09:29:04.898Z,26.48
2016-12-06T09:30:05.221Z,26.45
2016-12-06T09:31:04.914Z,26.37
2016-12-06T09:32:05.287Z,26.33
2016-12-06T09:33:05.243Z,26.17
2016-12-06T09:34:04.938Z,26.18
2016-12-06T09:35:04.947Z,26.1
2016-12-06T09:36:05.314Z,25.98
2016-12-06T09:37:05.450Z,25.88
2016-12-06T09:38:05.233Z,25.8
2016-12-06T09:39:05.231Z,25.76
2016-12-06T09:40:05.250Z,25.73
2016-12-06T09:41:04.632Z,25.85
2016-12-06T09:42:05.000Z,25.75
2016-12-06T09:43:04.958Z,25.75
2016-12-06T09:44:04.732Z,25.79
2016-12-06T09:45:04.660Z,25.83
2016-12-06T09:46:05.292Z,25.82
2016-12-06T09:47:04.730Z,25.85
2016-12-06T09:48:06.060Z,25.9
2016-12-06T09:49:04.691Z,26.06
2016-12-06T09:50:05.385Z,25.99
2016-12-06T09:51:05.438Z,26.12
2016-12-06T09:52:05.033Z,26.12
2016-12-06T09:53:05.086Z,26.21
2016-12-06T09:54:05.043Z,26.32
2016-12-06T09:55:05.410Z,26.37
2016-12-06T09:56:05.371Z,26.52
2016-12-06T09:57:05.483Z,26.57
2016-12-06T09:58:05.127Z,26.67
2016-12-06T09:59:06.035Z,26.87
2016-12-06T10:00:05.753Z,26.91
2016-12-06T10:01:05.937Z,27.04
2016-12-06T10:02:04.792Z,27.13
2016-12-06T10:03:05.114Z,27.24
2016-12-06T10:04:05.121Z,27.19
2016-12-06T10:05:05.497Z,27.27
2016-12-06T10:06:05.192Z,27.25
2016-12-06T10:07:05.149Z,27.34
2016-12-06T10:08:05.157Z,27.4
2016-12-06T10:09:05.525Z,27.34
2016-12-06T10:10:06.458Z,27.31
2016-12-06T10:11:06.020Z,27.18
2016-12-06T10:12:06.300Z,27.06
2016-12-06T10:13:05.570Z,27.12
2016-12-06T10:14:05.201Z,27.06
2016-12-06T10:15:05.579Z,27.07
2016-12-06T10:16:05.214Z,27.17
2016-12-06T10:17:05.535Z,27.1
2016-12-06T10:18:05.232Z,27.12
2016-12-06T10:19:04.923Z,27.25
2016-12-06T10:20:05.247Z,27.07
2016-12-06T10:21:05.302Z,27.12
2016-12-06T10:22:05.293Z,27.14
2016-12-06T10:23:06.671Z,27.09
2016-12-06T10:24:05.280Z,27.04
2016-12-06T10:25:05.597Z,27.07
2016-12-06T10:26:05.341Z,27.14
2016-12-06T10:27:05.613Z,27.12
2016-12-06T10:28:05.675Z,27.02
2016-12-06T10:29:05.337Z,26.88
2016-12-06T10:30:05.009Z,26.92
2016-12-06T10:31:05.389Z,26.84
2016-12-06T10:32:05.327Z,26.84
2016-12-06T10:33:05.080Z,26.85
2016-12-06T10:34:05.046Z,26.87
2016-12-06T10:35:05.414Z,26.94
2016-12-06T10:36:05.416Z,26.84
2016-12-06T10:37:05.690Z,26.8
2016-12-06T10:38:05.748Z,26.73
2016-12-06T10:39:05.476Z,26.73
2016-12-06T10:40:05.082Z,26.72
2016-12-06T10:41:05.764Z,26.69
2016-12-06T10:42:05.775Z,26.66
2016-12-06T10:43:06.134Z,26.43
2016-12-06T10:44:05.424Z,26.45
2016-12-06T10:45:05.439Z,26.26
2016-12-06T10:46:05.441Z,26.12
2016-12-06T10:47:05.499Z,25.99
2016-12-06T10:48:05.143Z,26.13
2016-12-06T10:49:05.830Z,26.15
2016-12-06T10:50:05.841Z,26.12
2016-12-06T10:51:05.211Z,26.15
2016-12-06T10:52:05.484Z,26.1
2016-12-06T10:53:05.844Z,26.12
2016-12-06T10:54:07.120Z,26.12
2016-12-06T10:55:05.819Z,26.15
2016-12-06T10:56:06.527Z,26.17
2016-12-06T10:57:05.570Z,26.13
2016-12-06T10:58:05.529Z,26.09
2016-12-06T10:59:05.534Z,26.12
2016-12-06T11:00:05.543Z,26.09
2016-12-06T11:01:05.864Z,26.17
2016-12-06T11:02:05.295Z,26.15
2016-12-06T11:03:05.611Z,26.17
2016-12-06T11:04:05.309Z,26.3
2016-12-06T11:05:05.579Z,26.26
2016-12-06T11:06:05.637Z,26.28
2016-12-06T11:07:07.857Z,26.32
2016-12-06T11:08:05.337Z,26.35
2016-12-06T11:09:05.958Z,26.32
2016-12-06T11:10:05.615Z,26.39
2016-12-06T11:11:05.622Z,26.33
2016-12-06T11:12:05.629Z,26.33
2016-12-06T11:13:05.638Z,26.35
2016-12-06T11:14:05.644Z,26.47
2016-12-06T11:15:06.042Z,26.36
2016-12-06T11:16:05.392Z,26.47
2016-12-06T11:17:06.028Z,26.47
2016-12-06T11:18:06.960Z,26.51
2016-12-06T11:19:05.681Z,26.45
2016-12-06T11:20:05.373Z,26.48
2016-12-06T11:21:06.054Z,26.5
2016-12-06T11:22:05.751Z,26.54
2016-12-06T11:23:05.708Z,26.55
2016-12-06T11:24:06.079Z,26.6
2016-12-06T11:25:05.724Z,26.51
2016-12-06T11:26:05.420Z,26.52
2016-12-06T11:27:05.785Z,26.57
2016-12-06T11:28:06.109Z,26.6
2016-12-06T11:29:05.754Z,26.69
2016-12-06T11:30:05.501Z,26.7
2016-12-06T11:31:05.813Z,26.69
2016-12-06T11:32:05.563Z,26.69
2016-12-06T11:33:06.081Z,26.66
2016-12-06T11:34:05.526Z,26.72
2016-12-06T11:35:05.846Z,26.65
2016-12-06T11:36:05.490Z,26.69
2016-12-06T11:37:05.863Z,26.52
2016-12-06T11:38:06.908Z,26.66
2016-12-06T11:39:06.186Z,26.7
2016-12-06T11:40:06.553Z,26.67
2016-12-06T11:41:05.890Z,26.69
2016-12-06T11:42:06.218Z,26.66
2016-12-06T11:43:05.903Z,26.75
2016-12-06T11:44:05.914Z,26.6
2016-12-06T11:45:05.555Z,26.63
2016-12-06T11:46:05.880Z,26.67
2016-12-06T11:47:05.882Z,26.48
2016-12-06T11:48:06.208Z,26.52
2016-12-06T11:49:07.242Z,26.54
2016-12-06T11:50:06.270Z,26.5
2016-12-06T11:51:07.118Z,26.67
2016-12-06T11:52:06.235Z,26.76
2016-12-06T11:53:06.031Z,26.6
2016-12-06T11:54:05.670Z,26.55
2016-12-06T11:55:05.950Z,26.43
2016-12-06T11:56:06.314Z,26.6
2016-12-06T11:57:05.962Z,26.45
2016-12-06T11:58:06.292Z,26.51
2016-12-06T11:59:06.287Z,26.48
2016-12-06T12:00:06.394Z,26.5
2016-12-06T12:01:06.303Z,26.52
2016-12-06T12:02:07.834Z,26.43
2016-12-06T12:03:06.320Z,26.4
2016-12-06T12:04:06.062Z,26.44
2016-12-06T12:05:06.414Z,26.43
2016-12-06T12:06:06.434Z,26.39
2016-12-06T12:07:06.345Z,26.47
2016-12-06T12:08:06.040Z,26.5
2016-12-06T12:09:06.105Z,26.36
2016-12-06T12:10:06.107Z,26.4
2016-12-06T12:11:06.607Z,26.36
2016-12-06T12:12:06.432Z,26.43
2016-12-06T12:13:06.441Z,26.37
2016-12-06T12:14:06.189Z,26.35
2016-12-06T12:15:06.404Z,26.37
2016-12-06T12:16:06.095Z,26.39
2016-12-06T12:17:05.801Z,26.37
2016-12-06T12:18:06.428Z,26.32
2016-12-06T12:19:06.175Z,26.3
2016-12-06T12:20:06.178Z,26.3
2016-12-06T12:21:06.547Z,26.25
2016-12-06T12:22:07.428Z,26.32
2016-12-06T12:23:06.154Z,26.3
2016-12-06T12:24:06.298Z,26.32
2016-12-06T12:25:06.464Z,26.35
2016-12-06T12:26:06.223Z,26.33
2016-12-06T12:27:06.490Z,26.3
2016-12-06T12:28:06.594Z,26.28
2016-12-06T12:29:06.560Z,26.26
2016-12-06T12:30:06.615Z,26.18
2016-12-06T12:31:06.527Z,26.12
2016-12-06T12:32:06.577Z,26.09
2016-12-06T12:33:07.710Z,26.1
2016-12-06T12:34:06.281Z,26.18
2016-12-06T12:35:07.106Z,26.17
2016-12-06T12:36:06.610Z,26.21
2016-12-06T12:37:06.250Z,26.12
2016-12-06T12:38:06.675Z,26.17
2016-12-06T12:39:06.628Z,26.13
2016-12-06T12:40:07.018Z,26.25
2016-12-06T12:41:06.330Z,26.17
2016-12-06T12:42:06.603Z,26.32
2016-12-06T12:43:06.351Z,26.23
2016-12-06T12:44:08.445Z,26.21
2016-12-06T12:45:06.675Z,26.13
2016-12-06T12:46:07.737Z,26.1
2016-12-06T12:47:06.331Z,26.12
2016-12-06T12:48:06.652Z,26.13
2016-12-06T12:49:06.390Z,26.12
2016-12-06T12:50:06.660Z,26.1
2016-12-06T12:51:06.667Z,26.1
2016-12-06T12:52:06.360Z,26.09
2016-12-06T12:53:06.833Z,26.1
2016-12-06T12:54:06.757Z,26.12
2016-12-06T12:55:06.437Z,26.13
2016-12-06T12:56:06.130Z,26.15
2016-12-06T12:57:06.401Z,26.2
2016-12-06T12:58:06.407Z,26.29
2016-12-06T12:59:06.108Z,26.32
2016-12-06T13:00:06.421Z,26.37
2016-12-06T13:01:06.529Z,26.29
2016-12-06T13:02:06.485Z,26.28
2016-12-06T13:03:06.184Z,26.37
2016-12-06T13:04:07.400Z,26.37
2016-12-06T13:05:06.825Z,26.36
2016-12-06T13:06:06.902Z,26.48
2016-12-06T13:07:07.183Z,26.48
2016-12-06T13:08:06.632Z,26.48
2016-12-06T13:09:06.800Z,26.52
2016-12-06T13:10:06.494Z,26.69
2016-12-06T13:11:06.866Z,26.73
2016-12-06T13:12:06.245Z,26.72